createdAt,value
2019-04-10T00:02:01.521Z,26.57
2019-04-10T00:06:06.981Z,22.70
2019-04-10T00:10:12.712Z,18.40
2019-04-10T00:14:20.524Z,26.23
2019-04-10T00:18:26.281Z,21.70
2019-04-10T00:22:31.504Z,20.23
2019-04-10T00:26:37.505Z,26.30
2019-04-10T00:30:43.039Z,22.30
2019-04-10T00:34:48.423Z,19.70
2019-04-10T00:38:53.857Z,23.77
2019-04-10T00:43:00.243Z,21.73
2019-04-10T00:47:06.523Z,21.23
2019-04-10T00:51:12.030Z,20.90
2019-04-10T00:55:17.137Z,20.03
2019-04-10T00:59:22.286Z,17.77
2019-04-10T01:03:48.039Z,25.57
2019-04-10T01:07:52.531Z,20.77
2019-04-10T01:11:59.281Z,20.60
2019-04-10T01:16:04.739Z,20.50
2019-04-10T01:20:10.701Z,21.90
2019-04-10T01:24:15.991Z,19.87
2019-04-10T01:28:21.220Z,23.80
2019-04-10T01:32:26.386Z,25.33
2019-04-10T01:36:31.659Z,27.17
2019-04-10T01:40:39.400Z,22.60
2019-04-10T01:44:44.806Z,24.20
2019-04-10T01:48:51.018Z,20.80
2019-04-10T01:52:57.428Z,18.00
2019-04-10T01:57:02.666Z,21.57
2019-04-10T02:01:16.517Z,28.47
2019-04-10T02:05:22.709Z,23.23
2019-04-10T02:09:28.083Z,21.40
2019-04-10T02:13:33.837Z,28.30
2019-04-10T02:17:39.326Z,20.90
2019-04-10T02:21:44.691Z,20.73
2019-04-10T02:25:49.894Z,17.97
2019-04-10T02:29:55.770Z,21.77
2019-04-10T02:34:01.517Z,21.90
2019-04-10T02:38:29.150Z,24.63
2019-04-10T02:42:14.474Z,23.23
2019-04-10T02:46:19.722Z,21.30
2019-04-10T02:50:25.381Z,22.17
2019-04-10T02:54:31.065Z,22.57
2019-04-10T02:58:36.430Z,23.57
2019-04-10T03:02:42.020Z,21.23
2019-04-10T03:06:47.937Z,27.23
2019-04-10T03:10:59.706Z,22.73
2019-04-10T03:15:01.129Z,24.97
2019-04-10T03:19:07.463Z,27.10
2019-04-10T03:23:13.508Z,22.20
2019-04-10T03:27:19.211Z,23.33
2019-04-10T03:31:25.397Z,23.67
2019-04-10T03:35:41.421Z,23.70
2019-04-10T03:39:46.777Z,19.47
2019-04-10T03:43:52.435Z,27.90
2019-04-10T03:47:57.982Z,27.23
2019-04-10T03:52:03.541Z,26.00
2019-04-10T03:56:09.588Z,24.40
2019-04-10T04:00:16.120Z,29.73
2019-04-10T04:04:21.613Z,25.17
2019-04-10T04:08:27.800Z,27.27
2019-04-10T04:12:33.055Z,26.80
2019-04-10T04:16:39.207Z,29.10
2019-04-10T04:20:45.369Z,27.83
2019-04-10T04:24:50.935Z,22.27
2019-04-10T04:28:56.103Z,23.17
2019-04-10T04:33:02.319Z,28.23
2019-04-10T04:37:07.968Z,27.37
2019-04-10T04:41:13.370Z,26.33
2019-04-10T04:45:19.481Z,22.93
2019-04-10T04:49:24.957Z,25.27
2019-04-10T04:53:30.315Z,22.80
2019-04-10T05:01:36.098Z,28.80
2019-04-10T05:05:41.331Z,24.90
2019-04-10T05:09:46.541Z,28.03
2019-04-10T05:13:52.999Z,24.10
2019-04-10T05:17:58.305Z,28.60
2019-04-10T05:22:03.880Z,27.97
2019-04-10T05:26:10.826Z,24.90
2019-04-10T05:30:16.431Z,24.50
2019-04-10T05:34:21.987Z,31.50
2019-04-10T05:38:27.467Z,29.53
2019-04-10T05:42:33.117Z,28.63
2019-04-10T05:46:38.856Z,25.20
2019-04-10T05:50:53.914Z,26.03
2019-04-10T05:54:51.572Z,30.17
2019-04-10T05:58:56.713Z,29.57
2019-04-10T06:03:02.011Z,32.00
2019-04-10T06:07:07.157Z,27.53
2019-04-10T06:11:13.613Z,26.13
2019-04-10T06:15:19.180Z,29.03
2019-04-10T06:19:25.476Z,29.53
2019-04-10T06:23:31.707Z,27.17
2019-04-10T06:27:52.673Z,32.10
2019-04-10T06:32:05.296Z,25.77
2019-04-10T06:36:17.407Z,32.97
2019-04-10T06:40:30.573Z,31.53
2019-04-10T06:44:44.568Z,29.30
2019-04-10T06:48:59.110Z,30.97
2019-04-10T06:53:10.552Z,35.87
2019-04-10T06:57:16.733Z,33.73
2019-04-10T07:01:24.516Z,32.33
2019-04-10T07:05:37.899Z,31.07
2019-04-10T07:09:40.027Z,32.47
2019-04-10T07:13:51.511Z,29.40
2019-04-10T07:18:08.164Z,34.00
2019-04-10T07:22:17.910Z,31.03
2019-04-10T07:26:38.005Z,27.20
2019-04-10T07:30:44.400Z,36.80
2019-04-10T07:34:59.109Z,29.03
2019-04-10T07:39:07.846Z,25.27
2019-04-10T07:43:22.193Z,34.30
2019-04-10T07:47:31.361Z,29.40
2019-04-10T07:51:42.938Z,30.13
2019-04-10T07:56:02.326Z,28.97
2019-04-10T08:00:04.522Z,31.53
2019-04-10T08:04:12.520Z,29.90
2019-04-10T08:08:21.729Z,36.07
2019-04-10T08:12:39.493Z,29.03
2019-04-10T08:16:41.438Z,35.47
2019-04-10T08:20:53.128Z,36.30
2019-04-10T08:25:00.192Z,40.40
2019-04-10T08:29:07.767Z,35.70
2019-04-10T08:33:17.536Z,35.40
2019-04-10T08:37:26.397Z,24.37
2019-04-10T08:41:33.696Z,29.73
2019-04-10T08:45:49.521Z,34.03
2019-04-10T08:49:55.048Z,25.40
2019-04-10T08:54:07.988Z,29.77
2019-04-10T08:58:18.847Z,29.07
2019-04-10T09:02:29.119Z,27.90
2019-04-10T09:06:39.791Z,32.30
2019-04-10T09:10:50.423Z,28.70
2019-04-10T09:15:02.578Z,28.93
2019-04-10T09:19:13.856Z,33.97
2019-04-10T09:23:29.801Z,32.63
2019-04-10T09:27:26.832Z,31.20
2019-04-10T09:31:36.128Z,32.00
2019-04-10T09:35:47.335Z,34.63
2019-04-10T09:39:58.676Z,28.63
2019-04-10T09:44:10.191Z,32.40
2019-04-10T09:48:24.279Z,30.93
2019-04-10T09:52:37.525Z,31.93
2019-04-10T09:56:46.379Z,28.17
2019-04-10T10:00:54.611Z,43.20
2019-04-10T10:05:02.275Z,31.07
2019-04-10T10:09:11.001Z,34.33
2019-04-10T10:13:18.305Z,27.27
2019-04-10T10:17:27.091Z,34.23
2019-04-10T10:21:36.539Z,33.90
2019-04-10T10:25:46.195Z,32.13
2019-04-10T10:29:56.070Z,29.93
2019-04-10T10:34:10.225Z,33.10
2019-04-10T10:38:21.728Z,33.03
2019-04-10T10:42:27.620Z,31.70
2019-04-10T10:46:34.310Z,32.20
2019-04-10T10:50:39.511Z,40.83
2019-04-10T10:54:45.236Z,33.07
2019-04-10T10:58:50.355Z,31.50
2019-04-10T11:02:56.021Z,31.87
2019-04-10T11:07:01.303Z,29.47
2019-04-10T11:11:06.635Z,32.33
2019-04-10T11:15:12.370Z,33.37
2019-04-10T11:19:17.341Z,34.90
2019-04-10T11:23:22.270Z,31.60
2019-04-10T11:27:28.020Z,25.97
2019-04-10T11:31:33.409Z,27.90
2019-04-10T11:35:39.666Z,28.00
2019-04-10T11:39:47.081Z,29.77
2019-04-10T11:43:52.648Z,31.80
2019-04-10T11:47:59.077Z,34.33
2019-04-10T11:52:06.253Z,28.37
2019-04-10T11:56:11.722Z,31.20
2019-04-10T12:00:20.390Z,27.50
2019-04-10T12:04:25.637Z,30.80
2019-04-10T12:09:00.365Z,34.17
2019-04-10T12:12:37.922Z,45.93
2019-04-10T12:16:43.204Z,30.80
2019-04-10T12:20:49.256Z,41.23
2019-04-10T12:24:59.021Z,35.67
2019-04-10T12:29:11.543Z,33.43
2019-04-10T12:33:21.888Z,37.43
2019-04-10T12:37:27.744Z,36.70
2019-04-10T12:41:33.210Z,33.10
2019-04-10T12:45:38.278Z,33.07
2019-04-10T12:49:43.528Z,38.73
2019-04-10T12:53:48.740Z,32.03
2019-04-10T12:58:05.429Z,34.07
2019-04-10T13:02:00.712Z,34.80
2019-04-10T13:06:07.497Z,30.47
2019-04-10T13:10:18.541Z,34.80
2019-04-10T13:14:24.408Z,33.83
2019-04-10T13:18:30.197Z,38.87
2019-04-10T13:22:35.999Z,42.00
2019-04-10T13:26:41.990Z,40.57
2019-04-10T13:30:52.760Z,37.77
2019-04-10T13:34:53.711Z,33.27
2019-04-10T13:38:58.643Z,38.60
2019-04-10T13:43:03.632Z,34.57
2019-04-10T13:47:09.046Z,35.27
2019-04-10T13:51:15.045Z,38.30
2019-04-10T13:55:20.167Z,38.83
2019-04-10T13:59:25.102Z,36.57
2019-04-10T14:03:30.192Z,42.37
2019-04-10T14:07:36.072Z,37.00
2019-04-10T14:11:41.609Z,36.87
2019-04-10T14:15:46.685Z,36.90
2019-04-10T14:19:51.952Z,34.43
2019-04-10T14:23:57.745Z,39.30
2019-04-10T14:28:03.339Z,36.53
2019-04-10T14:32:11.315Z,37.93
2019-04-10T14:36:16.406Z,30.87
2019-04-10T14:40:22.156Z,36.30
2019-04-10T14:44:28.423Z,36.40
2019-04-10T14:48:33.633Z,39.90
2019-04-10T14:52:38.733Z,33.47
2019-04-10T14:56:43.867Z,38.60
2019-04-10T15:00:52.934Z,38.20
2019-04-10T15:04:58.101Z,36.20
2019-04-10T15:09:03.982Z,35.87
2019-04-10T15:13:13.602Z,37.53
2019-04-10T15:17:16.786Z,35.80
2019-04-10T15:21:22.858Z,38.23
2019-04-10T15:25:27.762Z,35.00
2019-04-10T15:29:32.701Z,42.70
2019-04-10T15:33:37.877Z,38.37
2019-04-10T15:37:43.055Z,39.80
2019-04-10T15:41:48.341Z,35.60
2019-04-10T15:45:53.334Z,35.00
2019-04-10T15:49:58.309Z,36.20
2019-04-10T15:54:03.991Z,38.57
2019-04-10T15:58:10.825Z,38.00
2019-04-10T16:02:17.050Z,36.70
2019-04-10T16:06:22.978Z,32.87
2019-04-10T16:10:49.580Z,26.90
2019-04-10T16:14:54.891Z,33.30
2019-04-10T16:19:11.907Z,30.33
2019-04-10T16:23:20.133Z,38.50
2019-04-10T16:27:25.156Z,34.10
2019-04-10T16:31:30.481Z,37.03
2019-04-10T16:35:36.867Z,32.93
2019-04-10T16:39:42.452Z,35.17
2019-04-10T16:43:48.661Z,32.37
2019-04-10T16:47:54.542Z,25.40
2019-04-10T16:52:00.792Z,28.40
2019-04-10T16:56:07.331Z,28.80
2019-04-10T17:00:16.428Z,27.37
2019-04-10T17:04:21.039Z,29.27
2019-04-10T17:08:26.312Z,29.27
2019-04-10T17:12:31.764Z,27.70
2019-04-10T17:16:37.773Z,29.40
2019-04-10T17:20:42.838Z,38.20
2019-04-10T17:24:47.961Z,34.40
2019-04-10T17:28:53.026Z,29.77
2019-04-10T17:32:57.965Z,32.00
2019-04-10T17:37:03.162Z,27.60
2019-04-10T17:41:09.145Z,24.13
2019-04-10T17:45:15.261Z,25.90
2019-04-10T17:49:20.515Z,27.13
2019-04-10T17:53:25.605Z,24.43
2019-04-10T17:57:38.199Z,24.73
2019-04-10T18:01:38.927Z,24.50
2019-04-10T18:05:44.723Z,29.57
2019-04-10T18:09:50.713Z,23.03
2019-04-10T18:13:55.884Z,31.67
2019-04-10T18:18:00.883Z,32.87
2019-04-10T18:22:10.209Z,33.10
2019-04-10T18:26:19.059Z,25.90
2019-04-10T18:30:23.949Z,32.07
2019-04-10T18:34:29.025Z,30.50
2019-04-10T18:38:37.544Z,28.60
2019-04-10T18:42:43.400Z,31.53
2019-04-10T18:46:49.783Z,31.43
2019-04-10T18:50:54.887Z,32.13
2019-04-10T18:55:00.456Z,35.67
2019-04-10T18:59:40.668Z,41.73
2019-04-10T19:04:04.197Z,29.30
2019-04-10T19:08:11.688Z,28.73
2019-04-10T19:12:16.738Z,21.20
2019-04-10T19:16:23.498Z,21.50
2019-04-10T19:20:29.104Z,19.80
2019-04-10T19:24:36.420Z,25.40
2019-04-10T19:28:43.436Z,21.20
2019-04-10T19:32:49.816Z,25.93
2019-04-10T19:36:56.294Z,23.13
2019-04-10T19:41:02.840Z,21.30
2019-04-10T19:45:09.855Z,25.83
2019-04-10T19:49:16.412Z,23.90
2019-04-10T19:53:21.818Z,24.80
2019-04-10T19:57:26.913Z,26.90
2019-04-10T20:01:31.922Z,25.13
2019-04-10T20:05:37.282Z,24.63
2019-04-10T20:09:42.338Z,24.03
2019-04-10T20:13:49.111Z,22.80
2019-04-10T20:17:54.633Z,23.43
2019-04-10T20:22:00.756Z,24.63
2019-04-10T20:26:05.711Z,29.00
2019-04-10T20:30:11.920Z,27.93
2019-04-10T20:34:17.203Z,25.33
2019-04-10T20:38:23.136Z,27.20
2019-04-10T20:42:28.470Z,29.20
2019-04-10T20:46:33.951Z,38.23
2019-04-10T20:50:39.671Z,33.50
2019-04-10T20:54:45.431Z,33.50
2019-04-10T20:58:50.529Z,39.53
2019-04-10T21:02:56.441Z,29.77
2019-04-10T21:07:01.719Z,29.80
2019-04-10T21:11:07.944Z,27.47
2019-04-10T21:15:13.225Z,29.30
2019-04-10T21:19:18.508Z,31.70
2019-04-10T21:23:23.854Z,33.20
2019-04-10T21:27:29.982Z,34.80
2019-04-10T21:32:01.121Z,31.27
2019-04-10T21:36:07.156Z,39.90
2019-04-10T21:40:12.625Z,35.30
2019-04-10T21:44:18.283Z,35.43
2019-04-10T21:48:24.522Z,33.83
2019-04-10T21:52:30.743Z,37.43
2019-04-10T21:56:35.739Z,40.77
2019-04-10T22:01:01.521Z,38.50
2019-04-10T22:05:10.900Z,36.43
2019-04-10T22:09:28.573Z,39.20
2019-04-10T22:13:33.682Z,41.37
2019-04-10T22:17:38.677Z,41.60
2019-04-10T22:21:44.066Z,37.37
2019-04-10T22:25:50.094Z,36.87
2019-04-10T22:29:56.279Z,41.30
2019-04-10T22:34:03.004Z,33.57
2019-04-10T22:38:08.916Z,33.20
2019-04-10T22:42:14.998Z,34.60
2019-04-10T22:46:21.374Z,46.93
2019-04-10T22:50:27.507Z,36.60
2019-04-10T22:54:33.000Z,40.70
2019-04-10T22:58:37.880Z,39.40
2019-04-10T23:02:42.898Z,30.33
2019-04-10T23:06:47.915Z,35.60
2019-04-10T23:10:53.117Z,36.03
2019-04-10T23:14:58.744Z,36.37
2019-04-10T23:19:03.833Z,38.93
2019-04-10T23:23:08.953Z,40.20
2019-04-10T23:27:13.838Z,38.83
2019-04-10T23:31:19.523Z,39.13
2019-04-10T23:35:25.355Z,36.50
2019-04-10T23:39:30.460Z,33.40
2019-04-10T23:43:35.678Z,38.47
2019-04-10T23:47:40.623Z,41.03
2019-04-10T23:51:45.479Z,36.67
2019-04-10T23:55:50.580Z,36.73
2019-04-10T23:59:55.468Z,38.00
